Time;durP1;ratioP1;P1;durP2;ratioP2;P2;SDS_P1;SDS_P2;PMS_P1;PMS_P2;Temp;Humidity;BMP_temperature;BMP_pressure;BME280_temperature;BME280_humidity;BME280_pressure;Samples;Min_cycle;Max_cycle;Signal;HPM_P1;HPM_P2
2023/08/09 00:00:45;;;;;;;7.32;6.63;;;;;;;13.81;100.00;101123.81;5088924;28;20497;-54
2023/08/09 00:03:10;;;;;;;8.13;6.38;;;;;;;13.78;100.00;101118.66;5097465;28;20077;-56
2023/08/09 00:05:36;;;;;;;6.97;6.28;;;;;;;13.38;100.00;101047.16;5115591;28;20100;-56
2023/08/09 00:08:03;;;;;;;9.02;7.00;;;;;;;13.76;100.00;101125.81;5115395;28;20399;-57
2023/08/09 00:10:28;;;;;;;9.07;6.75;;;;;;;13.78;100.00;101126.59;5097569;28;20161;-54
2023/08/09 00:12:54;;;;;;;9.77;6.97;;;;;;;13.30;100.00;101038.69;5115380;28;20156;-58
2023/08/09 00:15:19;;;;;;;10.57;6.35;;;;;;;13.78;100.00;101131.88;5097348;28;20047;-58
2023/08/09 00:17:44;;;;;;;9.85;6.90;;;;;;;13.45;100.00;101070.66;5082284;28;20032;-56
2023/08/09 00:20:14;;;;;;;8.02;7.00;;;;;;;13.82;100.00;101137.94;5094958;28;20388;-59
2023/08/09 00:22:40;;;;;;;11.38;7.65;;;;;;;13.45;100.00;101072.44;5094942;28;20032;-57
2023/08/09 00:25:09;;;;;;;13.52;7.45;;;;;;;13.57;100.00;101084.31;5059868;28;20134;-57
2023/08/09 00:27:34;;;;;;;10.10;7.63;;;;;;;13.40;100.00;101066.44;5094570;28;20360;-56
2023/08/09 00:29:59;;;;;;;11.75;7.78;;;;;;;13.59;100.00;101111.53;5076799;28;20032;-56
2023/08/09 00:32:25;;;;;;;9.35;7.28;;;;;;;13.69;100.00;101128.78;5094280;28;20056;-56
2023/08/09 00:34:51;;;;;;;9.27;7.15;;;;;;;13.70;100.00;101151.66;5093352;28;20040;-56
2023/08/09 00:37:17;;;;;;;10.45;7.03;;;;;;;13.65;100.00;101149.19;5076594;28;20106;-57
2023/08/09 00:39:42;;;;;;;9.40;7.15;;;;;;;13.29;100.00;101087.19;5094506;28;20173;-57
2023/08/09 00:42:08;;;;;;;8.50;7.60;;;;;;;13.50;100.00;101131.28;5094221;28;20111;-57
2023/08/09 00:44:33;;;;;;;9.13;7.40;;;;;;;12.80;100.00;101017.72;5094375;28;20032;-56
2023/08/09 00:46:59;;;;;;;11.38;6.93;;;;;;;13.53;100.00;101153.19;5094527;28;20032;-54
2023/08/09 00:49:25;;;;;;;11.38;7.80;;;;;;;13.11;100.00;101074.69;5094431;28;20032;-56
2023/08/09 00:51:50;;;;;;;9.07;6.63;;;;;;;13.18;100.00;101081.47;5093643;28;20032;-56
2023/08/09 00:54:17;;;;;;;10.18;7.65;;;;;;;13.12;100.00;101076.41;5092703;28;20038;-53
2023/08/09 00:56:44;;;;;;;9.43;7.10;;;;;;;13.36;100.00;101121.25;5094289;28;20051;-57
2023/08/09 00:59:09;;;;;;;7.70;6.95;;;;;;;13.49;100.00;101146.28;5094346;28;20031;-55
2023/08/09 01:01:34;;;;;;;7.18;6.40;;;;;;;13.11;100.00;101101.97;5076228;28;20119;-56
2023/08/09 01:04:01;;;;;;;9.75;7.22;;;;;;;13.32;100.00;101146.09;5094155;28;20107;-56
2023/08/09 01:06:48;;;;;;;10.88;7.47;;;;;;;13.45;100.00;101160.56;5076044;28;20542;-53
2023/08/09 01:09:26;;;;;;;8.02;7.22;;;;;;;13.45;100.00;101149.13;5089407;28;20038;-56
2023/08/09 01:11:57;;;;;;;7.88;6.82;;;;;;;13.38;100.00;101150.28;5113794;28;20494;-56
2023/08/09 01:14:24;;;;;;;11.18;7.90;;;;;;;13.08;100.00;101098.59;5113683;28;20058;-56
2023/08/09 01:16:51;;;;;;;8.38;6.88;;;;;;;13.45;100.00;101162.34;5113502;28;20070;-55
2023/08/09 01:19:33;;;;;;;10.18;7.32;;;;;;;13.05;100.00;101099.53;5096084;28;20067;-57
2023/08/09 01:22:04;;;;;;;9.35;7.38;;;;;;;12.99;100.00;101082.13;5114054;28;20114;-53
2023/08/09 01:24:30;;;;;;;8.50;7.13;;;;;;;13.08;100.00;101088.00;5094579;28;20063;-57
2023/08/09 01:26:55;;;;;;;9.52;6.93;;;;;;;13.09;100.00;101097.66;5075576;28;20428;-56
2023/08/09 01:29:21;;;;;;;11.02;7.72;;;;;;;12.97;100.00;101078.69;5093308;28;20031;-58
2023/08/09 01:31:46;;;;;;;10.50;6.90;;;;;;;13.38;100.00;101159.06;5093235;28;20079;-55
2023/08/09 01:34:11;;;;;;;8.40;6.70;;;;;;;13.27;100.00;101129.56;5093418;28;20065;-55
2023/08/09 01:36:38;;;;;;;9.88;7.50;;;;;;;13.44;100.00;101163.25;5093491;28;20048;-57
2023/08/09 01:39:11;;;;;;;11.38;8.07;;;;;;;12.96;100.00;101090.19;5074561;28;20028;-56
2023/08/09 01:41:36;;;;;;;8.93;6.82;;;;;;;13.40;100.00;101166.94;5074520;28;20089;-58
2023/08/09 01:44:04;;;;;;;10.65;7.93;;;;;;;12.84;100.00;101090.63;5075272;28;20036;-53
2023/08/09 01:46:29;;;;;;;8.23;6.93;;;;;;;12.86;100.00;101101.16;5075019;28;20082;-58
2023/08/09 01:49:12;;;;;;;7.90;7.10;;;;;;;12.78;100.00;101096.16;5075123;28;20027;-55
2023/08/09 01:51:38;;;;;;;8.82;7.43;;;;;;;13.21;100.00;101168.56;5092890;28;20075;-55
2023/08/09 01:54:04;;;;;;;10.35;8.20;;;;;;;13.20;100.00;101166.84;5093173;28;20083;-59
2023/08/09 01:56:30;;;;;;;9.15;8.10;;;;;;;12.62;100.00;101076.53;5092140;28;20067;-56
2023/08/09 01:58:55;;;;;;;8.88;7.10;;;;;;;12.85;100.00;101104.72;5092701;28;20114;-59
2023/08/09 02:01:21;;;;;;;7.75;6.95;;;;;;;13.03;100.00;101133.09;5093036;28;20036;-55
2023/08/09 02:03:46;;;;;;;10.77;7.90;;;;;;;13.25;100.00;101184.25;5092956;28;20032;-56
2023/08/09 02:06:11;;;;;;;9.40;7.35;;;;;;;12.83;100.00;101122.41;5092821;28;20468;-55
2023/08/09 02:08:36;;;;;;;8.93;7.55;;;;;;;12.72;100.00;101106.09;5074686;28;20119;-56
2023/08/09 02:11:02;;;;;;;9.02;7.40;;;;;;;13.17;100.00;101188.09;5093468;28;20075;-56
2023/08/09 02:13:27;;;;;;;13.85;7.75;;;;;;;13.18;100.00;101189.84;5091857;28;20479;-56
2023/08/09 02:15:52;;;;;;;8.82;6.93;;;;;;;12.73;100.00;101111.31;5074655;28;20039;-54
2023/08/09 02:18:18;;;;;;;9.63;7.20;;;;;;;13.16;100.00;101202.25;5092485;28;20383;-56
2023/08/09 02:20:43;;;;;;;9.10;6.78;;;;;;;13.12;100.00;101196.22;5092756;28;20424;-54
2023/08/09 02:23:09;;;;;;;10.35;6.97;;;;;;;13.11;100.00;101198.91;5092689;28;20036;-55
2023/08/09 02:25:35;;;;;;;8.57;7.55;;;;;;;12.85;100.00;101163.69;5092560;28;20036;-59
2023/08/09 02:28:00;;;;;;;9.55;7.53;;;;;;;12.64;100.00;101124.84;5073669;28;20043;-54
2023/08/09 02:30:25;;;;;;;9.85;7.20;;;;;;;13.10;100.00;101190.13;5092512;28;20057;-54
2023/08/09 02:32:51;;;;;;;8.93;7.35;;;;;;;12.83;100.00;101143.53;5092134;28;20052;-54
2023/08/09 02:35:16;;;;;;;8.95;6.82;;;;;;;13.20;100.00;101217.94;5092427;28;20088;-56
2023/08/09 02:37:42;;;;;;;9.95;7.85;;;;;;;13.12;100.00;101198.00;5092509;28;20028;-59
2023/08/09 02:40:10;;;;;;;9.43;7.72;;;;;;;12.75;100.00;101140.31;5092330;28;20024;-56
2023/08/09 02:42:36;;;;;;;9.02;7.22;;;;;;;13.16;100.00;101212.81;5092242;28;20024;-53
2023/08/09 02:45:02;;;;;;;9.23;7.47;;;;;;;13.14;100.00;101218.16;5091301;28;20040;-58
2023/08/09 02:47:27;;;;;;;11.40;8.68;;;;;;;13.13;100.00;101215.59;5074206;28;20085;-55
2023/08/09 02:49:52;;;;;;;11.85;8.60;;;;;;;13.13;100.00;101220.88;5092373;28;20067;-55
2023/08/09 02:52:18;;;;;;;11.82;8.13;;;;;;;13.11;100.00;101223.56;5092189;28;20119;-57
2023/08/09 02:54:43;;;;;;;14.38;8.40;;;;;;;13.09;100.00;101208.66;5092253;28;20043;-57
2023/08/09 02:57:09;;;;;;;11.70;8.40;;;;;;;12.90;100.00;101185.53;5091760;28;20035;-53
2023/08/09 02:59:34;;;;;;;11.98;8.95;;;;;;;13.12;100.00;101219.13;5092075;28;20127;-57
2023/08/09 03:02:00;;;;;;;13.52;8.80;;;;;;;12.69;100.00;101140.56;5091595;28;20036;-56
2023/08/09 03:04:25;;;;;;;18.55;8.93;;;;;;;13.04;100.00;101213.25;5092278;28;20063;-54
2023/08/09 03:06:50;;;;;;;11.85;8.85;;;;;;;12.74;100.00;101165.00;5091987;28;20032;-57
2023/08/09 03:09:16;;;;;;;14.15;10.10;;;;;;;12.89;100.00;101189.09;5090885;28;20086;-55
2023/08/09 03:11:41;;;;;;;9.35;8.43;;;;;;;12.84;100.00;101188.38;5091773;28;20044;-56
2023/08/09 03:14:07;;;;;;;13.60;9.55;;;;;;;12.72;100.00;101148.38;5073842;28;20115;-55
2023/08/09 03:16:32;;;;;;;12.15;9.50;;;;;;;13.17;100.00;101227.75;5073526;28;20047;-53
2023/08/09 03:18:58;;;;;;;12.57;9.88;;;;;;;13.08;100.00;101233.38;5090908;28;20383;-58
2023/08/09 03:21:23;;;;;;;16.23;9.60;;;;;;;12.57;100.00;101143.63;5091892;28;20112;-58
2023/08/09 03:23:48;;;;;;;12.35;9.73;;;;;;;12.91;100.00;101204.88;5091997;28;20063;-55
2023/08/09 03:26:14;;;;;;;12.30;9.82;;;;;;;12.62;100.00;101161.03;5073738;28;20485;-55
2023/08/09 03:28:42;;;;;;;16.35;11.70;;;;;;;13.06;100.00;101225.47;5091826;28;20047;-59
2023/08/09 03:31:08;;;;;;;15.07;10.68;;;;;;;13.05;100.00;101228.19;5091878;28;20059;-57
2023/08/09 03:33:34;;;;;;;13.85;10.88;;;;;;;12.74;100.00;101187.00;5079840;28;20040;-57
2023/08/09 03:35:59;;;;;;;15.05;11.27;;;;;;;12.58;100.00;101153.28;5091975;28;20105;-56
2023/08/09 03:38:24;;;;;;;17.48;11.57;;;;;;;13.13;100.00;101248.16;5073874;28;20068;-50
2023/08/09 03:40:50;;;;;;;16.42;11.07;;;;;;;13.12;100.00;101240.28;5091923;28;20467;-56
2023/08/09 03:43:15;;;;;;;17.30;11.40;;;;;;;13.01;100.00;101232.72;5091628;28;20040;-59
2023/08/09 03:45:41;;;;;;;16.77;12.05;;;;;;;12.74;100.00;101184.38;5073921;28;20036;-54
2023/08/09 03:48:06;;;;;;;17.50;12.23;;;;;;;12.82;100.00;101200.78;5073897;28;20040;-59
2023/08/09 03:50:31;;;;;;;20.77;12.02;;;;;;;13.05;100.00;101244.03;5090788;28;20051;-55
2023/08/09 03:52:57;;;;;;;17.55;12.50;;;;;;;12.73;100.00;101201.13;5073626;28;20077;-56
2023/08/09 03:55:22;;;;;;;19.42;12.68;;;;;;;13.01;100.00;101238.00;5091638;28;20395;-56
2023/08/09 03:57:48;;;;;;;22.77;14.20;;;;;;;13.11;100.00;101257.03;5091876;28;20044;-55
2023/08/09 04:00:22;;;;;;;17.85;13.18;;;;;;;12.79;100.00;101206.19;5091850;28;20032;-56
2023/08/09 04:02:48;;;;;;;23.80;14.38;;;;;;;12.93;100.00;101232.09;5093203;28;20519;-53
2023/08/09 04:05:14;;;;;;;25.63;14.93;;;;;;;13.12;100.00;101267.56;5095263;28;20066;-57
2023/08/09 04:07:42;;;;;;;25.65;14.73;;;;;;;13.14;100.00;101264.84;5076432;28;20051;-55
2023/08/09 04:10:08;;;;;;;23.58;16.23;;;;;;;12.89;100.00;101219.94;5095591;28;20036;-55
2023/08/09 04:12:33;;;;;;;23.65;15.57;;;;;;;12.79;100.00;101200.91;5076850;28;20395;-59
2023/08/09 04:14:58;;;;;;;23.15;16.30;;;;;;;13.21;100.00;101269.03;5095283;28;20123;-54
2023/08/09 04:17:24;;;;;;;27.38;16.83;;;;;;;13.24;100.00;101272.41;5095150;28;20040;-55
2023/08/09 04:19:49;;;;;;;32.08;19.60;;;;;;;13.02;100.00;101225.66;5095158;28;20039;-57
2023/08/09 04:22:14;;;;;;;28.48;17.95;;;;;;;12.99;100.00;101221.31;5094441;28;20097;-55
2023/08/09 04:24:40;;;;;;;32.20;19.63;;;;;;;13.41;100.00;101288.53;5094067;28;20048;-58
2023/08/09 04:27:06;;;;;;;28.42;19.73;;;;;;;13.45;100.00;101290.16;5094836;28;20046;-58
2023/08/09 04:29:31;;;;;;;30.40;19.42;;;;;;;13.02;100.00;101200.06;5095024;28;20118;-56
2023/08/09 04:31:57;;;;;;;28.52;20.02;;;;;;;13.58;100.00;101289.66;5094216;28;20138;-56
2023/08/09 04:34:23;;;;;;;32.20;21.17;;;;;;;13.64;100.00;101287.66;5076750;28;20042;-53
2023/08/09 04:36:52;;;;;;;30.23;19.75;;;;;;;13.67;100.00;101286.69;5076883;28;20032;-55
2023/08/09 04:39:18;;;;;;;27.95;20.83;;;;;;;13.74;100.00;101289.06;5094601;28;20392;-56
2023/08/09 04:41:43;;;;;;;33.30;22.08;;;;;;;13.63;100.00;101261.28;5075410;28;20039;-59
2023/08/09 04:44:08;;;;;;;35.58;23.83;;;;;;;13.78;100.00;101285.34;5094336;28;20035;-55
2023/08/09 04:46:34;;;;;;;31.23;21.65;;;;;;;13.91;100.00;101307.78;5076405;28;20039;-57
2023/08/09 04:48:59;;;;;;;34.10;21.80;;;;;;;13.51;100.00;101222.94;5094542;28;20036;-55
2023/08/09 04:51:25;;;;;;;31.58;22.70;;;;;;;13.85;100.00;101275.41;5094145;28;20036;-54
2023/08/09 04:53:50;;;;;;;33.53;22.88;;;;;;;13.62;100.00;101222.53;5094262;28;20117;-56
2023/08/09 04:56:15;;;;;;;31.25;22.27;;;;;;;13.73;100.00;101239.69;5094221;28;20042;-55
2023/08/09 04:58:41;;;;;;;29.90;21.00;;;;;;;13.86;100.00;101245.38;5093643;28;20387;-58
2023/08/09 05:01:06;;;;;;;33.38;22.55;;;;;;;14.13;100.00;101285.78;5094364;28;20494;-57
2023/08/09 05:03:31;;;;;;;35.55;23.13;;;;;;;14.28;100.00;101308.97;5059379;28;20060;-56
2023/08/09 05:05:57;;;;;;;31.23;22.38;;;;;;;14.33;100.00;101315.00;5094096;28;20039;-57
2023/08/09 05:08:22;;;;;;;32.88;23.20;;;;;;;14.33;100.00;101318.47;5075903;28;20043;-56
2023/08/09 05:10:47;;;;;;;30.80;23.30;;;;;;;14.06;100.00;101264.84;5093960;28;20469;-56
2023/08/09 05:13:13;;;;;;;29.08;21.10;;;;;;;14.40;100.00;101308.50;5093227;28;20119;-57
2023/08/09 05:15:38;;;;;;;32.03;23.67;;;;;;;14.40;100.00;101303.22;5075391;28;20035;-55
2023/08/09 05:18:04;;;;;;;30.17;21.80;;;;;;;14.42;100.00;101304.00;5095310;28;20074;-54
2023/08/09 05:20:29;;;;;;;30.67;21.83;;;;;;;14.44;100.00;101311.00;5114244;28;20059;-55
2023/08/09 05:22:55;;;;;;;30.55;22.20;;;;;;;14.07;100.00;101247.16;5113966;28;20115;-57
2023/08/09 05:25:20;;;;;;;32.30;21.20;;;;;;;14.45;100.00;101310.03;5113976;28;20076;-55
2023/08/09 05:27:48;;;;;;;26.15;20.05;;;;;;;14.41;100.00;101310.25;5078693;28;20492;-57
2023/08/09 05:30:14;;;;;;;28.92;21.75;;;;;;;14.42;100.00;101319.91;5114053;28;20077;-54
2023/08/09 05:32:40;;;;;;;24.20;19.60;;;;;;;14.42;100.00;101317.25;5110563;28;20083;-53
2023/08/09 05:35:05;;;;;;;24.42;20.75;;;;;;;14.43;100.00;101327.78;5093618;28;20060;-54
2023/08/09 05:37:31;;;;;;;25.67;20.23;;;;;;;14.01;100.00;101258.84;5093136;28;20032;-55
2023/08/09 05:39:56;;;;;;;24.42;18.20;;;;;;;14.42;100.00;101334.00;5075265;28;20036;-57
2023/08/09 05:42:21;;;;;;;21.95;18.30;;;;;;;13.94;100.00;101246.81;5093664;28;20539;-53
2023/08/09 05:44:47;;;;;;;22.13;17.88;;;;;;;14.00;100.00;101258.91;5093483;28;20040;-53
2023/08/09 05:47:12;;;;;;;22.50;17.67;;;;;;;14.38;100.00;101334.22;5093112;28;20035;-56
2023/08/09 05:49:38;;;;;;;23.25;17.33;;;;;;;13.99;100.00;101260.69;5093109;28;20365;-55
2023/08/09 05:52:03;;;;;;;21.75;16.95;;;;;;;14.00;100.00;101265.09;5092351;28;20058;-59
2023/08/09 05:54:29;;;;;;;19.63;15.77;;;;;;;14.51;100.00;101348.66;5074873;28;20044;-55
2023/08/09 05:56:54;;;;;;;18.58;15.60;;;;;;;14.54;100.00;101351.19;5092952;28;20551;-55
2023/08/09 05:59:19;;;;;;;19.55;15.57;;;;;;;14.57;100.00;101351.06;5074849;28;20134;-54
2023/08/09 06:01:45;;;;;;;18.65;14.38;;;;;;;14.72;100.00;101357.53;5074933;28;20030;-54
2023/08/09 06:04:10;;;;;;;18.13;15.02;;;;;;;14.82;100.00;101357.09;5093076;28;20071;-59
2023/08/09 06:06:35;;;;;;;19.13;14.63;;;;;;;14.95;100.00;101360.09;5092930;28;20479;-57
2023/08/09 06:09:01;;;;;;;17.85;14.75;;;;;;;14.57;100.00;101269.81;5091685;28;20024;-56
2023/08/09 06:11:26;;;;;;;15.57;13.73;;;;;;;14.80;100.00;101283.91;5093160;28;20372;-55
2023/08/09 06:13:52;;;;;;;15.93;13.40;;;;;;;15.22;100.00;101343.00;5092767;28;20058;-56
2023/08/09 06:16:17;;;;;;;17.13;14.07;;;;;;;15.25;100.00;101342.00;5092703;28;20036;-55
2023/08/09 06:18:42;;;;;;;17.00;13.55;;;;;;;15.41;100.00;101354.50;5093119;28;20038;-57
2023/08/09 06:21:08;;;;;;;16.73;14.15;;;;;;;15.18;100.00;101309.56;5092721;28;20126;-54
2023/08/09 06:23:34;;;;;;;15.63;13.63;;;;;;;15.35;100.00;101306.19;5092363;28;20119;-55
2023/08/09 06:25:59;;;;;;;16.15;13.82;;;;;;;15.37;100.00;101293.72;5073480;28;20032;-56
2023/08/09 06:28:25;;;;;;;16.02;12.70;;;;;;;15.44;100.00;101295.19;5092489;28;20560;-56
2023/08/09 06:30:51;;;;;;;13.18;11.77;;;;;;;15.57;100.00;101291.06;5092466;28;20055;-56
2023/08/09 06:33:16;;;;;;;16.48;11.52;;;;;;;15.71;100.00;101288.63;5092281;28;20044;-58
2023/08/09 06:35:42;;;;;;;12.65;10.88;;;;;;;15.83;100.00;101296.03;5092267;28;20036;-52
2023/08/09 06:38:07;;;;;;;10.95;9.95;;;;;;;16.00;100.00;101289.91;5092545;28;20048;-54
2023/08/09 06:40:32;;;;;;;11.13;9.50;;;;;;;16.51;100.00;101364.47;5092464;28;20044;-56
2023/08/09 06:42:58;;;;;;;10.43;9.48;;;;;;;16.69;100.00;101368.06;5091843;28;20028;-55
2023/08/09 06:45:23;;;;;;;9.50;8.57;;;;;;;16.92;100.00;101362.44;5073786;28;20127;-52
2023/08/09 06:47:48;;;;;;;10.90;8.82;;;;;;;16.75;100.00;101309.25;5092305;28;20035;-55
2023/08/09 06:50:14;;;;;;;9.38;8.48;;;;;;;17.19;100.00;101354.88;5092338;28;20032;-54
2023/08/09 06:52:39;;;;;;;10.25;7.90;;;;;;;16.95;100.00;101282.53;5073970;28;20036;-54
2023/08/09 06:55:07;;;;;;;9.90;8.40;;;;;;;16.96;100.00;101283.38;5091779;28;20028;-55
2023/08/09 06:57:32;;;;;;;10.75;8.07;;;;;;;17.50;100.00;101362.97;5073827;28;20048;-55
2023/08/09 06:59:57;;;;;;;10.20;7.20;;;;;;;17.69;100.00;101371.72;5092235;28;20166;-58
2023/08/09 07:02:23;;;;;;;11.75;6.70;;;;;;;17.83;100.00;101363.00;5092200;28;20028;-56
2023/08/09 07:04:52;;;;;;;7.97;6.35;;;;;;;17.61;100.00;101293.22;5091961;28;20035;-56
2023/08/09 07:07:18;;;;;;;7.00;6.35;;;;;;;17.72;100.00;101309.44;5073985;28;20024;-56
2023/08/09 07:09:43;;;;;;;6.15;5.38;;;;;;;17.88;100.00;101316.53;5074397;28;20044;-54
2023/08/09 07:12:09;;;;;;;7.22;6.32;;;;;;;18.35;100.00;101364.53;5092507;28;20072;-55
2023/08/09 07:14:35;;;;;;;7.28;5.90;;;;;;;18.68;100.00;101382.25;5091283;28;20123;-53
2023/08/09 07:17:00;;;;;;;7.72;6.05;;;;;;;18.77;100.00;101379.91;5073947;28;20067;-53
2023/08/09 07:19:25;;;;;;;7.00;6.40;;;;;;;18.85;100.00;101355.47;5091917;28;20114;-55
2023/08/09 07:21:51;;;;;;;6.13;5.53;;;;;;;18.80;100.00;101323.72;5092081;28;20044;-59
2023/08/09 07:24:16;;;;;;;9.85;6.47;;;;;;;19.40;100.00;101382.44;5091679;28;20032;-59
2023/08/09 07:26:41;;;;;;;5.78;5.05;;;;;;;19.75;100.00;101380.28;5091788;28;20040;-55
2023/08/09 07:29:07;;;;;;;7.13;5.63;;;;;;;19.60;100.00;101342.88;5092127;28;20043;-51
2023/08/09 07:31:32;;;;;;;6.28;4.90;;;;;;;19.75;100.00;101342.88;5091312;28;20048;-55
2023/08/09 07:33:57;;;;;;;6.72;5.03;;;;;;;20.33;100.00;101405.09;5091756;28;20441;-57
2023/08/09 07:36:23;;;;;;;7.97;4.65;;;;;;;20.19;100.00;101397.94;5091646;28;20455;-54
2023/08/09 07:38:48;;;;;;;7.07;5.18;;;;;;;20.38;100.00;101388.72;5095247;28;20035;-55
2023/08/09 07:41:13;;;;;;;5.20;4.25;;;;;;;20.17;100.00;101332.13;5096002;28;20123;-56
2023/08/09 07:43:39;;;;;;;5.07;4.18;;;;;;;20.57;100.00;101403.50;5095746;28;20391;-56
2023/08/09 07:46:06;;;;;;;5.82;3.55;;;;;;;20.59;100.00;101406.94;5095641;28;20399;-54
2023/08/09 07:48:34;;;;;;;3.20;2.90;;;;;;;20.35;100.00;101418.34;5077131;28;20036;-57
2023/08/09 07:51:00;;;;;;;6.18;3.30;;;;;;;20.03;100.00;101433.69;5095495;28;20035;-56
2023/08/09 07:53:26;;;;;;;2.90;2.67;;;;;;;19.60;100.00;101438.16;5095409;28;20036;-52
2023/08/09 07:55:51;;;;;;;7.20;2.95;;;;;;;18.96;100.00;101379.69;5095485;28;20028;-56
2023/08/09 07:58:17;;;;;;;5.13;3.03;;;;;;;18.63;100.00;101385.16;5077392;28;20399;-55
2023/08/09 08:00:42;;;;;;;4.85;3.13;;;;;;;18.27;100.00;101381.88;5095457;28;20048;-59
2023/08/09 08:03:09;;;;;;;4.28;3.05;;;;;;;18.42;100.00;101429.00;5094687;28;20036;-55
2023/08/09 08:05:34;;;;;;;3.45;2.88;;;;;;;18.20;100.00;101372.50;5077313;28;20093;-53
2023/08/09 08:08:00;;;;;;;5.68;3.05;;;;;;;19.07;100.00;101419.94;5095184;28;20032;-55
2023/08/09 08:10:26;;;;;;;4.25;2.60;;;;;;;20.11;100.00;101436.78;5077119;28;20063;-54
2023/08/09 08:12:51;;;;;;;6.35;2.65;;;;;;;20.72;100.00;101383.75;5076969;28;20035;-57
2023/08/09 08:15:17;;;;;;;6.30;3.58;;;;;;;21.94;100.00;101462.06;5095347;28;20494;-58
2023/08/09 08:17:43;;;;;;;4.40;2.50;;;;;;;22.33;100.00;101404.75;5077225;28;20076;-55
2023/08/09 08:20:15;;;;;;;4.30;2.50;;;;;;;22.79;100.00;101431.81;5076281;28;20394;-57
2023/08/09 08:22:45;;;;;;;5.10;2.15;;;;;;;22.61;100.00;101486.78;5095040;28;20070;-55
2023/08/09 08:25:12;;;;;;;5.22;2.00;;;;;;;21.74;100.00;101495.59;5095041;28;20052;-56
2023/08/09 08:27:40;;;;;;;4.07;2.58;;;;;;;21.00;100.00;101479.16;5094665;28;20075;-55
2023/08/09 08:30:08;;;;;;;5.13;2.38;;;;;;;20.53;100.00;101420.72;5094777;28;20115;-53
2023/08/09 08:32:34;;;;;;;8.20;2.58;;;;;;;21.39;100.00;101483.72;5094302;28;20351;-55
2023/08/09 08:35:02;;;;;;;5.03;2.40;;;;;;;22.24;100.00;101496.63;5076495;28;20044;-52
2023/08/09 08:37:27;;;;;;;4.03;2.05;;;;;;;22.58;100.00;101441.38;5093994;28;20054;-55
2023/08/09 08:39:53;;;;;;;4.72;1.95;;;;;;;23.21;100.00;101455.44;5094831;28;20558;-53
2023/08/09 08:42:18;;;;;;;6.28;2.28;;;;;;;23.43;100.00;101469.00;5094699;28;20032;-56
2023/08/09 08:44:44;;;;;;;3.75;2.05;;;;;;;23.53;100.00;101522.88;5094600;28;20089;-56
2023/08/09 08:47:10;;;;;;;3.65;1.90;;;;;;;23.56;100.00;101485.03;5094342;28;20503;-56
2023/08/09 08:49:39;;;;;;;3.67;1.77;;;;;;;23.83;100.00;101477.53;5076128;28;20123;-56
2023/08/09 08:52:06;;;;;;;4.07;1.80;;;;;;;24.54;100.00;101517.63;5076171;28;20116;-57
2023/08/09 08:54:32;;;;;;;3.30;1.75;;;;;;;24.68;100.00;101486.91;5075651;28;20037;-57
2023/08/09 08:56:57;;;;;;;4.75;1.77;;;;;;;24.66;100.00;101504.16;5076218;28;20044;-56
2023/08/09 08:59:23;;;;;;;5.45;2.10;;;;;;;24.81;100.00;101506.47;5094179;28;20123;-55
2023/08/09 09:01:48;;;;;;;6.20;2.15;;;;;;;24.37;100.00;101549.56;5076132;28;20047;-57
2023/08/09 09:04:14;;;;;;;5.80;2.30;;;;;;;24.10;100.00;101563.31;5076412;28;20040;-56
2023/08/09 09:06:40;;;;;;;4.35;2.13;;;;;;;24.18;100.00;101533.13;5094191;28;20035;-56
2023/08/09 09:09:15;;;;;;;6.75;2.22;;;;;;;24.65;100.00;101549.06;5075257;28;20127;-55
2023/08/09 09:11:43;;;;;;;3.38;2.00;;;;;;;25.07;100.00;101571.72;5059422;28;20392;-57
2023/08/09 09:14:10;;;;;;;3.53;1.90;;;;;;;25.32;100.00;101567.84;5076020;28;20032;-53
2023/08/09 09:16:35;;;;;;;5.38;2.20;;;;;;;24.76;100.00;101524.81;5075779;28;20032;-59
2023/08/09 09:19:02;;;;;;;4.25;1.88;;;;;;;24.07;100.00;101561.69;5093890;28;20032;-56
2023/08/09 09:21:30;;;;;;;3.85;2.00;;;;;;;24.19;100.00;101557.22;5075690;28;20038;-57
2023/08/09 09:23:56;;;;;;;5.65;1.65;;;;;;;24.69;100.00;101557.75;5093820;28;20027;-56
2023/08/09 09:26:21;;;;;;;2.78;1.75;;;;;;;25.18;100.00;101559.09;5075913;28;20084;-57
2023/08/09 09:28:48;;;;;;;5.75;1.70;;;;;;;25.09;100.00;101494.31;5093029;28;20127;-55
2023/08/09 09:31:17;;;;;;;4.53;1.30;;;;;;;24.62;100.00;101568.16;5093162;28;20036;-58
2023/08/09 09:33:50;;;;;;;9.07;2.00;;;;;;;22.76;100.00;101515.22;5075897;28;20028;-58
2023/08/09 09:36:18;;;;;;;2.85;1.50;;;;;;;22.29;100.00;101556.13;5076052;28;20024;-53
2023/08/09 09:38:44;;;;;;;5.43;1.58;;;;;;;22.13;100.00;101542.94;5093316;28;20024;-57
2023/08/09 09:41:10;;;;;;;5.32;1.27;;;;;;;22.90;100.00;101540.09;5093355;28;20032;-56
2023/08/09 09:43:41;;;;;;;3.03;1.40;;;;;;;23.80;100.00;101557.56;5093271;28;20028;-59
2023/08/09 09:46:18;;;;;;;4.55;1.48;;;;;;;24.13;100.00;101567.59;5092866;28;20110;-56
2023/08/09 09:48:48;;;;;;;4.53;1.40;;;;;;;24.31;100.00;101501.59;5075277;28;20127;-58
2023/08/09 09:51:18;;;;;;;3.63;1.30;;;;;;;24.77;100.00;101469.16;5093206;28;20035;-56
2023/08/09 09:53:44;;;;;;;2.88;1.17;;;;;;;25.49;100.00;101537.69;5093115;28;20302;-55
2023/08/09 09:56:10;;;;;;;2.53;1.35;;;;;;;26.18;100.00;101599.16;5075068;28;20044;-56
2023/08/09 09:58:36;;;;;;;5.22;1.15;;;;;;;26.19;100.00;101581.13;5093051;28;20113;-54
2023/08/09 10:01:03;;;;;;;3.10;1.38;;;;;;;26.59;100.00;101597.44;5074569;28;20028;-54
2023/08/09 10:03:30;;;;;;;5.30;1.45;;;;;;;26.48;100.00;101538.97;5078053;28;20077;-56
2023/08/09 10:05:56;;;;;;;4.43;1.52;;;;;;;25.89;100.00;101552.19;5113070;28;20058;-54
2023/08/09 10:08:25;;;;;;;4.53;1.70;;;;;;;25.62;100.00;101613.88;5113225;28;20032;-56
2023/08/09 10:10:50;;;;;;;5.68;1.58;;;;;;;24.51;100.00;101612.09;5095206;28;20031;-56
2023/08/09 10:13:21;;;;;;;2.17;1.33;;;;;;;24.28;100.00;101602.25;5094865;28;20036;-56
2023/08/09 10:15:50;;;;;;;2.55;1.42;;;;;;;24.69;100.00;101555.06;5095382;28;20032;-55
2023/08/09 10:18:23;;;;;;;4.60;1.67;;;;;;;25.57;100.00;101605.28;5078085;28;20477;-55
2023/08/09 10:20:55;;;;;;;7.90;1.48;;;;;;;26.54;100.00;101623.97;5074963;28;20470;-50
2023/08/09 10:23:22;;;;;;;5.47;1.35;;;;;;;26.92;100.00;101640.41;5075363;28;20040;-57
2023/08/09 10:25:49;;;;;;;3.25;1.10;;;;;;;26.83;100.00;101592.59;5074837;28;20307;-53
2023/08/09 10:28:15;;;;;;;2.45;1.30;;;;;;;27.21;100.00;101595.44;5074911;28;20036;-57
2023/08/09 10:30:55;;;;;;;5.88;1.35;;;;;;;26.74;100.00;101596.06;5074716;28;20039;-56
2023/08/09 10:33:20;;;;;;;3.63;1.25;;;;;;;26.25;100.00;101564.41;5092611;28;20128;-53
2023/08/09 10:35:51;;;;;;;3.65;1.50;;;;;;;26.77;100.00;101647.13;5108781;28;20188;-56
2023/08/09 10:38:36;;;;;;;4.93;1.33;;;;;;;27.27;100.00;101654.34;5113257;28;20035;-52
2023/08/09 10:41:07;;;;;;;2.55;1.25;;;;;;;27.34;100.00;101641.13;5112448;28;20140;-55
2023/08/09 10:43:33;;;;;;;4.72;1.40;;;;;;;25.92;100.00;101583.47;5094733;28;20039;-56
2023/08/09 10:46:17;;;;;;;4.60;1.35;;;;;;;26.25;100.00;101659.75;5094494;28;20035;-57
2023/08/09 10:48:53;;;;;;;5.97;1.65;;;;;;;26.26;100.00;101602.09;5094533;28;20031;-56
2023/08/09 10:51:23;;;;;;;3.33;0.95;;;;;;;26.73;100.00;101653.81;5108018;28;20032;-55
2023/08/09 10:53:58;;;;;;;5.05;1.33;;;;;;;27.04;100.00;101662.78;5074120;28;20115;-56
2023/08/09 10:56:47;;;;;;;3.40;1.20;;;;;;;27.54;100.00;101671.81;5092172;28;20036;-59
2023/08/09 10:59:21;;;;;;;8.18;1.40;;;;;;;27.09;100.00;101658.69;5081093;28;20040;-56
2023/08/09 11:01:47;;;;;;;3.45;1.20;;;;;;;26.11;100.00;101656.47;5074343;28;20028;-58
2023/08/09 11:04:13;;;;;;;5.10;2.00;;;;;;;25.84;100.00;101627.28;5091999;28;20044;-55
2023/08/09 11:06:44;;;;;;;2.90;1.52;;;;;;;25.47;100.00;101617.81;5091599;28;20483;-53
2023/08/09 11:09:14;;;;;;;3.08;1.15;;;;;;;25.29;100.00;101671.38;5092014;28;20047;-58